sensor_id;sensor_type;location;lat;lon;timestamp;temperature;humidity
6270;DHT22;3168;51.684;6.954;2023-12-29T00:00:00;10.90;13.50
6270;DHT22;3168;51.684;6.954;2023-12-29T00:02:26;10.90;14.20
6270;DHT22;3168;51.684;6.954;2023-12-29T00:04:52;10.90;14.10
6270;DHT22;3168;51.684;6.954;2023-12-29T00:07:18;10.90;14.50
6270;DHT22;3168;51.684;6.954;2023-12-29T00:09:44;10.90;15.10
6270;DHT22;3168;51.684;6.954;2023-12-29T00:12:10;10.90;16.20
6270;DHT22;3168;51.684;6.954;2023-12-29T00:14:38;10.90;15.30
6270;DHT22;3168;51.684;6.954;2023-12-29T00:17:03;11.00;13.30
6270;DHT22;3168;51.684;6.954;2023-12-29T00:19:29;10.90;14.10
6270;DHT22;3168;51.684;6.954;2023-12-29T00:21:56;10.90;14.10
6270;DHT22;3168;51.684;6.954;2023-12-29T00:24:22;10.90;13.50
6270;DHT22;3168;51.684;6.954;2023-12-29T00:26:48;11.00;13.00
6270;DHT22;3168;51.684;6.954;2023-12-29T00:29:14;10.90;10.50
6270;DHT22;3168;51.684;6.954;2023-12-29T00:31:40;10.90;14.60
6270;DHT22;3168;51.684;6.954;2023-12-29T00:34:06;11.00;13.00
6270;DHT22;3168;51.684;6.954;2023-12-29T00:36:32;11.00;13.30
6270;DHT22;3168;51.684;6.954;2023-12-29T00:38:58;11.00;13.30
6270;DHT22;3168;51.684;6.954;2023-12-29T00:41:24;10.90;15.30
6270;DHT22;3168;51.684;6.954;2023-12-29T00:43:50;10.90;15.60
6270;DHT22;3168;51.684;6.954;2023-12-29T00:46:16;10.90;16.60
6270;DHT22;3168;51.684;6.954;2023-12-29T00:48:42;10.90;16.60
6270;DHT22;3168;51.684;6.954;2023-12-29T00:51:08;10.90;17.80
6270;DHT22;3168;51.684;6.954;2023-12-29T00:53:35;10.90;15.90
6270;DHT22;3168;51.684;6.954;2023-12-29T00:56:01;10.90;16.70
6270;DHT22;3168;51.684;6.954;2023-12-29T00:58:27;10.90;17.60
6270;DHT22;3168;51.684;6.954;2023-12-29T01:00:53;10.90;17.20
6270;DHT22;3168;51.684;6.954;2023-12-29T01:03:19;10.90;18.60
6270;DHT22;3168;51.684;6.954;2023-12-29T01:05:45;10.90;14.90
6270;DHT22;3168;51.684;6.954;2023-12-29T01:08:11;10.90;19.20
6270;DHT22;3168;51.684;6.954;2023-12-29T01:10:37;10.90;18.50
6270;DHT22;3168;51.684;6.954;2023-12-29T01:13:04;10.90;20.50
6270;DHT22;3168;51.684;6.954;2023-12-29T01:15:30;10.90;19.80
6270;DHT22;3168;51.684;6.954;2023-12-29T01:17:56;10.80;22.40
6270;DHT22;3168;51.684;6.954;2023-12-29T01:20:22;10.80;28.00
6270;DHT22;3168;51.684;6.954;2023-12-29T01:22:48;10.80;38.30
6270;DHT22;3168;51.684;6.954;2023-12-29T01:25:14;10.70;61.10
6270;DHT22;3168;51.684;6.954;2023-12-29T01:27:40;10.60;61.00
6270;DHT22;3168;51.684;6.954;2023-12-29T01:30:07;10.50;61.20
6270;DHT22;3168;51.684;6.954;2023-12-29T01:32:33;10.50;60.90
6270;DHT22;3168;51.684;6.954;2023-12-29T01:34:59;10.60;60.90
6270;DHT22;3168;51.684;6.954;2023-12-29T01:37:25;10.50;60.90
6270;DHT22;3168;51.684;6.954;2023-12-29T01:39:51;10.50;60.90
6270;DHT22;3168;51.684;6.954;2023-12-29T01:42:17;10.50;60.90
6270;DHT22;3168;51.684;6.954;2023-12-29T01:44:43;10.50;60.90
6270;DHT22;3168;51.684;6.954;2023-12-29T01:47:11;10.60;60.90
6270;DHT22;3168;51.684;6.954;2023-12-29T01:49:36;10.60;60.90
6270;DHT22;3168;51.684;6.954;2023-12-29T01:52:03;10.60;61.10
6270;DHT22;3168;51.684;6.954;2023-12-29T01:54:31;10.50;60.90
6270;DHT22;3168;51.684;6.954;2023-12-29T01:56:56;10.50;60.90
6270;DHT22;3168;51.684;6.954;2023-12-29T01:59:21;10.50;60.90
6270;DHT22;3168;51.684;6.954;2023-12-29T02:01:48;10.30;99.90
6270;DHT22;3168;51.684;6.954;2023-12-29T02:04:14;10.20;99.90
6270;DHT22;3168;51.684;6.954;2023-12-29T02:06:40;10.10;99.90
6270;DHT22;3168;51.684;6.954;2023-12-29T02:09:06;10.00;99.90
6270;DHT22;3168;51.684;6.954;2023-12-29T02:11:32;9.90;99.90
6270;DHT22;3168;51.684;6.954;2023-12-29T02:13:59;9.80;99.90
6270;DHT22;3168;51.684;6.954;2023-12-29T02:16:34;9.70;99.90
6270;DHT22;3168;51.684;6.954;2023-12-29T02:18:57;9.70;99.90
6270;DHT22;3168;51.684;6.954;2023-12-29T02:21:24;9.50;99.90
6270;DHT22;3168;51.684;6.954;2023-12-29T02:23:51;9.40;99.90
6270;DHT22;3168;51.684;6.954;2023-12-29T02:26:17;9.40;99.90
6270;DHT22;3168;51.684;6.954;2023-12-29T02:28:44;9.40;99.90
6270;DHT22;3168;51.684;6.954;2023-12-29T02:31:12;9.30;99.90
6270;DHT22;3168;51.684;6.954;2023-12-29T02:33:37;9.30;99.90
6270;DHT22;3168;51.684;6.954;2023-12-29T02:36:02;9.20;99.90
6270;DHT22;3168;51.684;6.954;2023-12-29T02:38:28;9.10;99.90
6270;DHT22;3168;51.684;6.954;2023-12-29T02:40:55;9.20;99.90
6270;DHT22;3168;51.684;6.954;2023-12-29T02:43:20;9.10;99.90
6270;DHT22;3168;51.684;6.954;2023-12-29T02:45:46;9.10;99.90
6270;DHT22;3168;51.684;6.954;2023-12-29T02:48:12;9.00;99.90
6270;DHT22;3168;51.684;6.954;2023-12-29T02:50:38;9.00;1.00
6270;DHT22;3168;51.684;6.954;2023-12-29T02:53:04;9.00;1.00
6270;DHT22;3168;51.684;6.954;2023-12-29T02:55:30;8.90;1.00
6270;DHT22;3168;51.684;6.954;2023-12-29T02:57:56;9.00;1.00
6270;DHT22;3168;51.684;6.954;2023-12-29T03:00:22;9.10;1.00
6270;DHT22;3168;51.684;6.954;2023-12-29T03:02:48;9.10;1.00
6270;DHT22;3168;51.684;6.954;2023-12-29T03:05:14;9.10;1.00
6270;DHT22;3168;51.684;6.954;2023-12-29T03:07:40;9.10;1.00
6270;DHT22;3168;51.684;6.954;2023-12-29T03:10:07;9.10;1.00
6270;DHT22;3168;51.684;6.954;2023-12-29T03:12:33;9.20;1.00
6270;DHT22;3168;51.684;6.954;2023-12-29T03:15:00;9.20;1.00
6270;DHT22;3168;51.684;6.954;2023-12-29T03:17:26;9.10;1.00
6270;DHT22;3168;51.684;6.954;2023-12-29T03:19:52;9.20;99.90
6270;DHT22;3168;51.684;6.954;2023-12-29T03:22:18;9.20;99.90
6270;DHT22;3168;51.684;6.954;2023-12-29T03:24:44;9.20;99.90
6270;DHT22;3168;51.684;6.954;2023-12-29T03:27:10;9.20;99.90
6270;DHT22;3168;51.684;6.954;2023-12-29T03:29:36;9.30;99.90
6270;DHT22;3168;51.684;6.954;2023-12-29T03:32:02;9.30;99.90
6270;DHT22;3168;51.684;6.954;2023-12-29T03:34:28;9.40;99.90
6270;DHT22;3168;51.684;6.954;2023-12-29T03:36:54;9.40;99.90
6270;DHT22;3168;51.684;6.954;2023-12-29T03:39:20;9.40;99.90
6270;DHT22;3168;51.684;6.954;2023-12-29T03:41:46;9.40;99.90
6270;DHT22;3168;51.684;6.954;2023-12-29T03:44:12;9.50;99.90
6270;DHT22;3168;51.684;6.954;2023-12-29T03:46:38;9.50;99.90
6270;DHT22;3168;51.684;6.954;2023-12-29T03:49:04;9.50;99.90
6270;DHT22;3168;51.684;6.954;2023-12-29T03:51:30;9.50;99.90
6270;DHT22;3168;51.684;6.954;2023-12-29T03:53:57;9.40;99.90
6270;DHT22;3168;51.684;6.954;2023-12-29T03:56:23;9.40;99.90
6270;DHT22;3168;51.684;6.954;2023-12-29T03:58:49;9.40;99.90
6270;DHT22;3168;51.684;6.954;2023-12-29T04:01:15;9.40;99.90
6270;DHT22;3168;51.684;6.954;2023-12-29T04:03:41;9.40;99.90
6270;DHT22;3168;51.684;6.954;2023-12-29T04:06:07;9.50;99.90
6270;DHT22;3168;51.684;6.954;2023-12-29T04:08:33;9.40;99.90
6270;DHT22;3168;51.684;6.954;2023-12-29T04:10:58;9.50;99.90
6270;DHT22;3168;51.684;6.954;2023-12-29T04:13:24;9.40;99.90
6270;DHT22;3168;51.684;6.954;2023-12-29T04:15:50;9.50;99.90
6270;DHT22;3168;51.684;6.954;2023-12-29T04:18:17;9.60;99.90
6270;DHT22;3168;51.684;6.954;2023-12-29T04:20:42;9.60;99.90
6270;DHT22;3168;51.684;6.954;2023-12-29T04:23:16;9.60;99.90
6270;DHT22;3168;51.684;6.954;2023-12-29T04:25:42;9.50;99.90
6270;DHT22;3168;51.684;6.954;2023-12-29T04:28:08;9.60;99.90
6270;DHT22;3168;51.684;6.954;2023-12-29T04:30:34;9.70;99.90
6270;DHT22;3168;51.684;6.954;2023-12-29T04:33:00;9.60;99.90
6270;DHT22;3168;51.684;6.954;2023-12-29T04:35:26;9.70;99.90
6270;DHT22;3168;51.684;6.954;2023-12-29T04:37:52;9.70;99.90
6270;DHT22;3168;51.684;6.954;2023-12-29T04:40:21;9.80;99.90
6270;DHT22;3168;51.684;6.954;2023-12-29T04:42:47;9.80;99.90
6270;DHT22;3168;51.684;6.954;2023-12-29T04:45:13;9.80;99.90
6270;DHT22;3168;51.684;6.954;2023-12-29T04:47:39;9.80;99.90
6270;DHT22;3168;51.684;6.954;2023-12-29T04:50:06;9.80;99.90
6270;DHT22;3168;51.684;6.954;2023-12-29T04:52:32;9.80;99.90
6270;DHT22;3168;51.684;6.954;2023-12-29T04:54:58;9.90;99.90
6270;DHT22;3168;51.684;6.954;2023-12-29T04:57:24;9.90;99.90
6270;DHT22;3168;51.684;6.954;2023-12-29T04:59:50;10.00;99.90
6270;DHT22;3168;51.684;6.954;2023-12-29T05:02:16;10.10;99.90
6270;DHT22;3168;51.684;6.954;2023-12-29T05:04:42;10.00;99.90
6270;DHT22;3168;51.684;6.954;2023-12-29T05:07:09;10.00;99.90
6270;DHT22;3168;51.684;6.954;2023-12-29T05:09:35;10.00;99.90
6270;DHT22;3168;51.684;6.954;2023-12-29T05:12:01;10.00;99.90
6270;DHT22;3168;51.684;6.954;2023-12-29T05:14:27;10.10;99.90
6270;DHT22;3168;51.684;6.954;2023-12-29T05:16:54;10.10;99.90
6270;DHT22;3168;51.684;6.954;2023-12-29T05:19:20;10.10;99.90
6270;DHT22;3168;51.684;6.954;2023-12-29T05:21:47;10.10;99.90
6270;DHT22;3168;51.684;6.954;2023-12-29T05:24:12;10.10;99.90
6270;DHT22;3168;51.684;6.954;2023-12-29T05:26:38;10.00;99.90
6270;DHT22;3168;51.684;6.954;2023-12-29T05:29:04;10.10;99.90
6270;DHT22;3168;51.684;6.954;2023-12-29T05:31:30;10.10;99.90
6270;DHT22;3168;51.684;6.954;2023-12-29T05:33:56;10.00;99.90
6270;DHT22;3168;51.684;6.954;2023-12-29T05:36:22;10.10;99.90
6270;DHT22;3168;51.684;6.954;2023-12-29T05:38:48;10.10;99.90
6270;DHT22;3168;51.684;6.954;2023-12-29T05:41:14;10.10;99.90
6270;DHT22;3168;51.684;6.954;2023-12-29T05:43:41;10.10;99.90
6270;DHT22;3168;51.684;6.954;2023-12-29T05:46:09;10.20;99.90
6270;DHT22;3168;51.684;6.954;2023-12-29T05:48:35;10.10;99.90
6270;DHT22;3168;51.684;6.954;2023-12-29T05:51:05;10.00;99.90
6270;DHT22;3168;51.684;6.954;2023-12-29T05:53:27;10.00;99.90
6270;DHT22;3168;51.684;6.954;2023-12-29T05:55:53;10.00;99.90
6270;DHT22;3168;51.684;6.954;2023-12-29T05:58:19;10.10;99.90
6270;DHT22;3168;51.684;6.954;2023-12-29T06:00:45;10.10;99.90
6270;DHT22;3168;51.684;6.954;2023-12-29T06:03:11;10.10;99.90
6270;DHT22;3168;51.684;6.954;2023-12-29T06:05:38;10.10;99.90
6270;DHT22;3168;51.684;6.954;2023-12-29T06:08:05;10.10;99.90
6270;DHT22;3168;51.684;6.954;2023-12-29T06:10:31;10.10;99.90
6270;DHT22;3168;51.684;6.954;2023-12-29T06:12:57;10.20;99.90
6270;DHT22;3168;51.684;6.954;2023-12-29T06:15:23;10.20;99.90
6270;DHT22;3168;51.684;6.954;2023-12-29T06:17:49;10.30;99.90
6270;DHT22;3168;51.684;6.954;2023-12-29T06:20:16;10.20;99.90
6270;DHT22;3168;51.684;6.954;2023-12-29T06:22:42;10.20;99.90
6270;DHT22;3168;51.684;6.954;2023-12-29T06:25:09;10.20;99.90
6270;DHT22;3168;51.684;6.954;2023-12-29T06:27:35;10.20;99.90
6270;DHT22;3168;51.684;6.954;2023-12-29T06:30:02;10.20;99.90
6270;DHT22;3168;51.684;6.954;2023-12-29T06:32:28;10.20;99.90
6270;DHT22;3168;51.684;6.954;2023-12-29T06:34:54;10.20;99.90
6270;DHT22;3168;51.684;6.954;2023-12-29T06:37:20;10.20;99.90
6270;DHT22;3168;51.684;6.954;2023-12-29T06:39:46;10.10;99.90
6270;DHT22;3168;51.684;6.954;2023-12-29T06:42:12;10.10;99.90
6270;DHT22;3168;51.684;6.954;2023-12-29T06:44:38;10.10;99.90
6270;DHT22;3168;51.684;6.954;2023-12-29T06:47:05;10.10;99.90
6270;DHT22;3168;51.684;6.954;2023-12-29T06:49:31;10.10;99.90
6270;DHT22;3168;51.684;6.954;2023-12-29T06:51:57;10.10;99.90
6270;DHT22;3168;51.684;6.954;2023-12-29T06:54:23;10.10;99.90
6270;DHT22;3168;51.684;6.954;2023-12-29T06:56:49;10.00;99.90
6270;DHT22;3168;51.684;6.954;2023-12-29T06:59:16;10.10;99.90
6270;DHT22;3168;51.684;6.954;2023-12-29T07:01:43;10.10;99.90
6270;DHT22;3168;51.684;6.954;2023-12-29T07:04:09;10.10;99.90
6270;DHT22;3168;51.684;6.954;2023-12-29T07:06:36;10.10;99.90
6270;DHT22;3168;51.684;6.954;2023-12-29T07:09:02;10.10;99.90
6270;DHT22;3168;51.684;6.954;2023-12-29T07:11:28;10.10;99.90
6270;DHT22;3168;51.684;6.954;2023-12-29T07:13:55;10.20;99.90
6270;DHT22;3168;51.684;6.954;2023-12-29T07:16:21;10.10;99.90
6270;DHT22;3168;51.684;6.954;2023-12-29T07:18:47;10.20;99.90
6270;DHT22;3168;51.684;6.954;2023-12-29T07:21:14;10.10;99.90
6270;DHT22;3168;51.684;6.954;2023-12-29T07:23:40;10.00;99.90
6270;DHT22;3168;51.684;6.954;2023-12-29T07:26:05;9.90;99.90
6270;DHT22;3168;51.684;6.954;2023-12-29T07:28:32;9.80;99.90
6270;DHT22;3168;51.684;6.954;2023-12-29T07:30:57;9.70;99.90
6270;DHT22;3168;51.684;6.954;2023-12-29T07:33:24;9.60;99.90
6270;DHT22;3168;51.684;6.954;2023-12-29T07:35:50;9.60;99.90
6270;DHT22;3168;51.684;6.954;2023-12-29T07:38:16;9.60;99.90
6270;DHT22;3168;51.684;6.954;2023-12-29T07:40:42;9.70;99.90
6270;DHT22;3168;51.684;6.954;2023-12-29T07:43:08;9.70;99.90
6270;DHT22;3168;51.684;6.954;2023-12-29T07:45:34;9.80;99.90
6270;DHT22;3168;51.684;6.954;2023-12-29T07:48:02;9.80;99.90
6270;DHT22;3168;51.684;6.954;2023-12-29T07:50:28;9.80;99.90
6270;DHT22;3168;51.684;6.954;2023-12-29T07:52:54;9.80;99.90
6270;DHT22;3168;51.684;6.954;2023-12-29T07:55:20;9.90;99.90
6270;DHT22;3168;51.684;6.954;2023-12-29T07:57:46;9.90;99.90
6270;DHT22;3168;51.684;6.954;2023-12-29T08:00:14;9.90;99.90
6270;DHT22;3168;51.684;6.954;2023-12-29T08:02:39;9.90;99.90
6270;DHT22;3168;51.684;6.954;2023-12-29T08:05:06;9.90;99.90
6270;DHT22;3168;51.684;6.954;2023-12-29T08:07:34;9.90;99.90
6270;DHT22;3168;51.684;6.954;2023-12-29T08:10:00;10.00;99.90
6270;DHT22;3168;51.684;6.954;2023-12-29T08:12:26;10.00;99.90
6270;DHT22;3168;51.684;6.954;2023-12-29T08:14:52;10.00;99.90
6270;DHT22;3168;51.684;6.954;2023-12-29T08:17:18;10.00;99.90
6270;DHT22;3168;51.684;6.954;2023-12-29T08:19:44;10.00;99.90
6270;DHT22;3168;51.684;6.954;2023-12-29T08:22:10;9.90;99.90
6270;DHT22;3168;51.684;6.954;2023-12-29T08:24:36;9.90;99.90
6270;DHT22;3168;51.684;6.954;2023-12-29T08:27:03;9.90;99.90
6270;DHT22;3168;51.684;6.954;2023-12-29T08:29:29;9.90;99.90
6270;DHT22;3168;51.684;6.954;2023-12-29T08:31:55;9.90;99.90
6270;DHT22;3168;51.684;6.954;2023-12-29T08:34:21;9.80;99.90
6270;DHT22;3168;51.684;6.954;2023-12-29T08:36:47;9.80;99.90
6270;DHT22;3168;51.684;6.954;2023-12-29T08:39:13;9.80;99.90
6270;DHT22;3168;51.684;6.954;2023-12-29T08:41:39;9.90;99.90
6270;DHT22;3168;51.684;6.954;2023-12-29T08:44:05;9.90;99.90
6270;DHT22;3168;51.684;6.954;2023-12-29T08:46:31;9.90;99.90
6270;DHT22;3168;51.684;6.954;2023-12-29T08:48:57;9.90;99.90
6270;DHT22;3168;51.684;6.954;2023-12-29T08:51:23;9.90;99.90
6270;DHT22;3168;51.684;6.954;2023-12-29T08:53:50;9.90;99.90
6270;DHT22;3168;51.684;6.954;2023-12-29T08:56:17;10.00;99.90
6270;DHT22;3168;51.684;6.954;2023-12-29T08:58:43;10.00;99.90
6270;DHT22;3168;51.684;6.954;2023-12-29T09:01:09;10.00;99.90
6270;DHT22;3168;51.684;6.954;2023-12-29T09:03:35;10.00;99.90
6270;DHT22;3168;51.684;6.954;2023-12-29T09:06:02;10.10;99.90
6270;DHT22;3168;51.684;6.954;2023-12-29T09:08:28;10.10;99.90
6270;DHT22;3168;51.684;6.954;2023-12-29T09:10:54;10.10;99.90
6270;DHT22;3168;51.684;6.954;2023-12-29T09:13:20;10.10;99.90
6270;DHT22;3168;51.684;6.954;2023-12-29T09:15:46;10.10;99.90
6270;DHT22;3168;51.684;6.954;2023-12-29T09:18:12;10.10;99.90
6270;DHT22;3168;51.684;6.954;2023-12-29T09:20:37;10.10;99.90
6270;DHT22;3168;51.684;6.954;2023-12-29T09:23:03;10.10;99.90
6270;DHT22;3168;51.684;6.954;2023-12-29T09:25:29;10.20;99.90
6270;DHT22;3168;51.684;6.954;2023-12-29T09:27:55;10.10;99.90
6270;DHT22;3168;51.684;6.954;2023-12-29T09:30:21;10.20;99.90
6270;DHT22;3168;51.684;6.954;2023-12-29T09:32:47;10.20;99.90
6270;DHT22;3168;51.684;6.954;2023-12-29T09:35:13;10.20;99.90
6270;DHT22;3168;51.684;6.954;2023-12-29T09:37:39;10.20;99.90
6270;DHT22;3168;51.684;6.954;2023-12-29T09:40:06;10.20;99.90
6270;DHT22;3168;51.684;6.954;2023-12-29T09:42:32;10.20;99.90
6270;DHT22;3168;51.684;6.954;2023-12-29T09:44:58;10.20;99.90
6270;DHT22;3168;51.684;6.954;2023-12-29T09:47:24;10.30;99.90
6270;DHT22;3168;51.684;6.954;2023-12-29T09:49:52;10.30;99.90
6270;DHT22;3168;51.684;6.954;2023-12-29T09:52:17;10.30;99.90
6270;DHT22;3168;51.684;6.954;2023-12-29T09:54:44;10.40;99.90
6270;DHT22;3168;51.684;6.954;2023-12-29T09:57:10;10.40;99.90
6270;DHT22;3168;51.684;6.954;2023-12-29T09:59:37;10.40;99.90
6270;DHT22;3168;51.684;6.954;2023-12-29T10:02:04;10.40;99.90
6270;DHT22;3168;51.684;6.954;2023-12-29T10:04:31;10.50;99.90
6270;DHT22;3168;51.684;6.954;2023-12-29T10:06:56;10.40;99.90
6270;DHT22;3168;51.684;6.954;2023-12-29T10:09:22;10.50;99.90
6270;DHT22;3168;51.684;6.954;2023-12-29T10:11:49;10.50;99.90
6270;DHT22;3168;51.684;6.954;2023-12-29T10:14:28;10.50;99.90
6270;DHT22;3168;51.684;6.954;2023-12-29T10:16:57;10.40;99.90
6270;DHT22;3168;51.684;6.954;2023-12-29T10:19:27;10.40;99.90
6270;DHT22;3168;51.684;6.954;2023-12-29T10:21:52;10.40;99.90
6270;DHT22;3168;51.684;6.954;2023-12-29T10:24:16;10.50;99.90
6270;DHT22;3168;51.684;6.954;2023-12-29T10:26:42;10.40;99.90
6270;DHT22;3168;51.684;6.954;2023-12-29T10:29:08;10.50;99.90
6270;DHT22;3168;51.684;6.954;2023-12-29T10:31:34;10.50;99.90
6270;DHT22;3168;51.684;6.954;2023-12-29T10:36:47;10.50;99.90
6270;DHT22;3168;51.684;6.954;2023-12-29T10:39:13;10.50;99.90
6270;DHT22;3168;51.684;6.954;2023-12-29T10:41:39;10.60;99.90
6270;DHT22;3168;51.684;6.954;2023-12-29T10:44:06;10.50;99.90
6270;DHT22;3168;51.684;6.954;2023-12-29T10:46:33;10.60;99.90
6270;DHT22;3168;51.684;6.954;2023-12-29T10:49:07;10.60;99.90
6270;DHT22;3168;51.684;6.954;2023-12-29T10:51:32;10.60;99.90
6270;DHT22;3168;51.684;6.954;2023-12-29T10:53:59;10.50;99.90
6270;DHT22;3168;51.684;6.954;2023-12-29T10:56:25;10.50;99.90
6270;DHT22;3168;51.684;6.954;2023-12-29T10:59:06;10.50;99.90
6270;DHT22;3168;51.684;6.954;2023-12-29T11:01:34;10.50;99.90
6270;DHT22;3168;51.684;6.954;2023-12-29T11:04:00;10.50;99.90
6270;DHT22;3168;51.684;6.954;2023-12-29T11:06:26;10.50;99.90
6270;DHT22;3168;51.684;6.954;2023-12-29T11:08:51;10.50;99.90
6270;DHT22;3168;51.684;6.954;2023-12-29T11:11:17;10.50;99.90
6270;DHT22;3168;51.684;6.954;2023-12-29T11:13:43;10.50;99.90
6270;DHT22;3168;51.684;6.954;2023-12-29T11:16:09;10.50;99.90
6270;DHT22;3168;51.684;6.954;2023-12-29T11:18:36;10.60;99.90
6270;DHT22;3168;51.684;6.954;2023-12-29T11:21:02;10.60;99.90
6270;DHT22;3168;51.684;6.954;2023-12-29T11:23:28;10.60;99.90
6270;DHT22;3168;51.684;6.954;2023-12-29T11:25:54;10.60;99.90
6270;DHT22;3168;51.684;6.954;2023-12-29T11:28:20;10.60;99.90
6270;DHT22;3168;51.684;6.954;2023-12-29T11:30:46;10.60;99.90
6270;DHT22;3168;51.684;6.954;2023-12-29T11:33:17;10.60;99.90
6270;DHT22;3168;51.684;6.954;2023-12-29T11:35:46;10.70;99.90
6270;DHT22;3168;51.684;6.954;2023-12-29T11:41:05;10.60;99.90
6270;DHT22;3168;51.684;6.954;2023-12-29T11:43:28;10.70;99.90
6270;DHT22;3168;51.684;6.954;2023-12-29T11:45:54;10.70;99.90
6270;DHT22;3168;51.684;6.954;2023-12-29T11:50:58;10.70;99.90
6270;DHT22;3168;51.684;6.954;2023-12-29T11:53:31;10.70;99.90
6270;DHT22;3168;51.684;6.954;2023-12-29T11:55:57;10.70;99.90
6270;DHT22;3168;51.684;6.954;2023-12-29T11:58:24;10.80;99.90
6270;DHT22;3168;51.684;6.954;2023-12-29T12:00:49;10.80;99.90
6270;DHT22;3168;51.684;6.954;2023-12-29T12:03:25;10.80;99.90
6270;DHT22;3168;51.684;6.954;2023-12-29T12:05:52;10.80;99.90
6270;DHT22;3168;51.684;6.954;2023-12-29T12:08:29;10.80;99.90
6270;DHT22;3168;51.684;6.954;2023-12-29T12:10:55;10.90;99.90
6270;DHT22;3168;51.684;6.954;2023-12-29T12:16:00;11.00;99.90
6270;DHT22;3168;51.684;6.954;2023-12-29T12:18:26;11.00;99.90
6270;DHT22;3168;51.684;6.954;2023-12-29T12:20:52;11.00;99.90
6270;DHT22;3168;51.684;6.954;2023-12-29T12:23:18;11.00;99.90
6270;DHT22;3168;51.684;6.954;2023-12-29T12:25:44;11.00;99.90
6270;DHT22;3168;51.684;6.954;2023-12-29T12:28:10;11.00;99.90
6270;DHT22;3168;51.684;6.954;2023-12-29T12:30:36;10.90;99.90
6270;DHT22;3168;51.684;6.954;2023-12-29T12:33:03;11.00;99.90
6270;DHT22;3168;51.684;6.954;2023-12-29T12:35:29;10.90;99.90
6270;DHT22;3168;51.684;6.954;2023-12-29T12:38:07;11.00;99.90
6270;DHT22;3168;51.684;6.954;2023-12-29T12:40:33;10.90;99.90
6270;DHT22;3168;51.684;6.954;2023-12-29T12:42:59;10.90;99.90
6270;DHT22;3168;51.684;6.954;2023-12-29T12:45:25;10.90;99.90
6270;DHT22;3168;51.684;6.954;2023-12-29T12:47:51;10.90;99.90
6270;DHT22;3168;51.684;6.954;2023-12-29T12:50:17;10.80;99.90
6270;DHT22;3168;51.684;6.954;2023-12-29T12:52:43;10.80;99.90
6270;DHT22;3168;51.684;6.954;2023-12-29T12:55:09;10.40;99.90
6270;DHT22;3168;51.684;6.954;2023-12-29T12:57:36;10.40;99.90
6270;DHT22;3168;51.684;6.954;2023-12-29T13:00:02;10.10;99.90
6270;DHT22;3168;51.684;6.954;2023-12-29T13:02:28;9.90;99.90
6270;DHT22;3168;51.684;6.954;2023-12-29T13:04:54;9.70;99.90
6270;DHT22;3168;51.684;6.954;2023-12-29T13:07:21;9.70;99.90
6270;DHT22;3168;51.684;6.954;2023-12-29T13:09:48;9.50;99.90
6270;DHT22;3168;51.684;6.954;2023-12-29T13:12:14;9.50;99.90
6270;DHT22;3168;51.684;6.954;2023-12-29T13:14:40;9.30;99.90
6270;DHT22;3168;51.684;6.954;2023-12-29T13:17:07;9.30;99.90
6270;DHT22;3168;51.684;6.954;2023-12-29T13:19:33;9.20;99.90
6270;DHT22;3168;51.684;6.954;2023-12-29T13:21:59;9.10;99.90
6270;DHT22;3168;51.684;6.954;2023-12-29T13:24:26;9.00;99.90
6270;DHT22;3168;51.684;6.954;2023-12-29T13:26:54;9.00;99.90
6270;DHT22;3168;51.684;6.954;2023-12-29T13:29:19;8.90;99.90
6270;DHT22;3168;51.684;6.954;2023-12-29T13:31:44;8.90;99.90
6270;DHT22;3168;51.684;6.954;2023-12-29T13:34:12;8.90;99.90
6270;DHT22;3168;51.684;6.954;2023-12-29T13:36:39;8.90;99.90
6270;DHT22;3168;51.684;6.954;2023-12-29T13:39:08;8.90;99.90
6270;DHT22;3168;51.684;6.954;2023-12-29T13:41:32;8.90;99.90
6270;DHT22;3168;51.684;6.954;2023-12-29T13:43:58;8.90;99.90
6270;DHT22;3168;51.684;6.954;2023-12-29T13:46:24;8.90;99.90
6270;DHT22;3168;51.684;6.954;2023-12-29T13:48:50;8.80;99.90
6270;DHT22;3168;51.684;6.954;2023-12-29T13:51:17;8.80;1.00
6270;DHT22;3168;51.684;6.954;2023-12-29T13:53:43;8.70;1.00
6270;DHT22;3168;51.684;6.954;2023-12-29T13:56:10;8.80;1.00
6270;DHT22;3168;51.684;6.954;2023-12-29T13:58:36;8.70;1.00
6270;DHT22;3168;51.684;6.954;2023-12-29T14:01:04;8.80;1.00
6270;DHT22;3168;51.684;6.954;2023-12-29T14:03:31;8.80;1.00
6270;DHT22;3168;51.684;6.954;2023-12-29T14:05:59;8.80;1.00
6270;DHT22;3168;51.684;6.954;2023-12-29T14:08:26;8.80;1.00
6270;DHT22;3168;51.684;6.954;2023-12-29T14:10:52;8.80;1.00
6270;DHT22;3168;51.684;6.954;2023-12-29T14:13:18;8.80;1.00
6270;DHT22;3168;51.684;6.954;2023-12-29T14:15:45;8.80;1.00
6270;DHT22;3168;51.684;6.954;2023-12-29T14:18:52;8.80;1.00
6270;DHT22;3168;51.684;6.954;2023-12-29T14:20:56;8.80;1.00
6270;DHT22;3168;51.684;6.954;2023-12-29T14:23:23;8.70;1.00
6270;DHT22;3168;51.684;6.954;2023-12-29T14:25:49;8.70;1.00
6270;DHT22;3168;51.684;6.954;2023-12-29T14:28:17;8.60;1.00
6270;DHT22;3168;51.684;6.954;2023-12-29T14:30:43;8.60;1.00
6270;DHT22;3168;51.684;6.954;2023-12-29T14:33:09;8.50;1.00
6270;DHT22;3168;51.684;6.954;2023-12-29T14:35:35;8.50;1.00
6270;DHT22;3168;51.684;6.954;2023-12-29T14:38:01;8.50;1.00
6270;DHT22;3168;51.684;6.954;2023-12-29T14:40:27;8.50;1.00
6270;DHT22;3168;51.684;6.954;2023-12-29T14:42:53;8.60;1.00
6270;DHT22;3168;51.684;6.954;2023-12-29T14:45:19;8.60;1.00
6270;DHT22;3168;51.684;6.954;2023-12-29T14:47:46;8.60;1.00
6270;DHT22;3168;51.684;6.954;2023-12-29T14:50:12;8.60;1.00
6270;DHT22;3168;51.684;6.954;2023-12-29T14:52:38;8.60;1.00
6270;DHT22;3168;51.684;6.954;2023-12-29T14:55:05;8.60;1.00
6270;DHT22;3168;51.684;6.954;2023-12-29T14:57:31;8.70;1.00
6270;DHT22;3168;51.684;6.954;2023-12-29T14:59:57;8.70;1.00
6270;DHT22;3168;51.684;6.954;2023-12-29T15:02:23;8.80;1.00
6270;DHT22;3168;51.684;6.954;2023-12-29T15:04:49;8.90;1.00
6270;DHT22;3168;51.684;6.954;2023-12-29T15:07:15;8.90;1.00
6270;DHT22;3168;51.684;6.954;2023-12-29T15:09:41;9.00;1.00
6270;DHT22;3168;51.684;6.954;2023-12-29T15:12:07;9.00;1.00
6270;DHT22;3168;51.684;6.954;2023-12-29T15:14:33;9.10;1.00
6270;DHT22;3168;51.684;6.954;2023-12-29T15:17:00;9.20;1.00
6270;DHT22;3168;51.684;6.954;2023-12-29T15:19:26;9.10;1.00
6270;DHT22;3168;51.684;6.954;2023-12-29T15:21:52;9.30;1.00
6270;DHT22;3168;51.684;6.954;2023-12-29T15:24:18;9.40;1.00
6270;DHT22;3168;51.684;6.954;2023-12-29T15:26:44;9.30;1.00
6270;DHT22;3168;51.684;6.954;2023-12-29T15:29:10;9.40;1.00
6270;DHT22;3168;51.684;6.954;2023-12-29T15:31:36;9.50;1.00
6270;DHT22;3168;51.684;6.954;2023-12-29T15:34:02;9.50;1.00
6270;DHT22;3168;51.684;6.954;2023-12-29T15:36:28;9.60;1.00
6270;DHT22;3168;51.684;6.954;2023-12-29T15:38:54;9.60;1.00
6270;DHT22;3168;51.684;6.954;2023-12-29T15:41:21;9.50;99.90
6270;DHT22;3168;51.684;6.954;2023-12-29T15:43:47;9.50;99.90
6270;DHT22;3168;51.684;6.954;2023-12-29T15:46:16;9.40;99.90
6270;DHT22;3168;51.684;6.954;2023-12-29T15:48:42;9.40;99.90
6270;DHT22;3168;51.684;6.954;2023-12-29T15:51:08;9.30;99.90
6270;DHT22;3168;51.684;6.954;2023-12-29T15:53:34;9.40;99.90
6270;DHT22;3168;51.684;6.954;2023-12-29T15:56:00;9.30;99.90
6270;DHT22;3168;51.684;6.954;2023-12-29T15:58:26;9.30;99.90
6270;DHT22;3168;51.684;6.954;2023-12-29T16:00:52;9.30;1.00
6270;DHT22;3168;51.684;6.954;2023-12-29T16:03:18;9.20;1.00
6270;DHT22;3168;51.684;6.954;2023-12-29T16:05:45;9.20;1.00
6270;DHT22;3168;51.684;6.954;2023-12-29T16:08:11;9.20;1.00
6270;DHT22;3168;51.684;6.954;2023-12-29T16:10:37;9.20;1.00
6270;DHT22;3168;51.684;6.954;2023-12-29T16:13:04;9.20;1.00
6270;DHT22;3168;51.684;6.954;2023-12-29T16:15:30;9.20;1.00